Time;durP1;ratioP1;P1;durP2;ratioP2;P2;SDS_P1;SDS_P2;PMS_P1;PMS_P2;Temp;Humidity;BMP_temperature;BMP_pressure;BME280_temperature;BME280_humidity;BME280_pressure;Samples;Min_cycle;Max_cycle;Signal;HPM_P1;HPM_P2
2021/07/14 00:00:54;;;;;;;21.07;11.17;;;16.40;99.90;;;;;;5075858;28;20196;-66
2021/07/14 00:03:24;;;;;;;17.53;10.27;;;16.40;99.90;;;;;;5076219;28;20220;-66
2021/07/14 00:05:52;;;;;;;18.97;10.30;;;16.50;99.90;;;;;;5078319;28;20184;-67
2021/07/14 00:08:21;;;;;;;17.50;11.20;;;16.50;99.90;;;;;;5073727;28;20259;-66
2021/07/14 00:10:49;;;;;;;14.83;10.33;;;16.40;99.90;;;;;;5077981;28;20234;-67
2021/07/14 00:13:29;;;;;;;17.97;10.53;;;16.40;99.90;;;;;;5074348;28;20188;-67
2021/07/14 00:24:23;;;;;;;18.83;11.20;;;16.40;99.90;;;;;;5060064;28;20245;-66
2021/07/14 00:26:51;;;;;;;19.17;11.23;;;16.30;99.90;;;;;;5092535;28;20478;-67
2021/07/14 00:29:20;;;;;;;15.07;10.63;;;16.30;99.90;;;;;;5073184;28;20317;-66
2021/07/14 00:31:49;;;;;;;15.90;10.27;;;16.30;99.90;;;;;;5078373;28;20462;-67
2021/07/14 00:34:19;;;;;;;17.80;10.30;;;16.30;99.90;;;;;;5076777;28;20292;-66
2021/07/14 00:36:47;;;;;;;14.20;10.07;;;16.40;99.90;;;;;;5076643;28;20214;-66
2021/07/14 00:39:16;;;;;;;14.43;10.17;;;16.40;99.90;;;;;;5074141;28;20315;-66
2021/07/14 00:41:45;;;;;;;15.43;10.10;;;16.40;99.90;;;;;;5077259;28;20180;-67
2021/07/14 00:44:13;;;;;;;19.40;10.13;;;16.40;99.90;;;;;;5075859;28;20189;-67
2021/07/14 00:46:43;;;;;;;15.00;10.43;;;16.30;99.90;;;;;;5075492;28;20181;-66
2021/07/14 00:49:11;;;;;;;16.17;10.27;;;16.30;99.90;;;;;;5077240;28;20245;-67
2021/07/14 00:51:41;;;;;;;14.87;10.40;;;16.30;99.90;;;;;;5072324;28;20239;-67
2021/07/14 00:54:10;;;;;;;19.00;11.20;;;16.40;99.90;;;;;;5076733;28;20484;-66
2021/07/14 00:56:40;;;;;;;15.90;10.60;;;16.40;99.90;;;;;;5080170;28;20181;-67
2021/07/14 00:59:08;;;;;;;19.50;11.70;;;16.30;99.90;;;;;;5075636;28;21466;-66
2021/07/14 01:01:36;;;;;;;20.23;10.60;;;16.30;99.90;;;;;;5075202;28;20212;-67
2021/07/14 01:04:12;;;;;;;20.27;10.60;;;16.30;99.90;;;;;;5077331;28;20229;-66
2021/07/14 01:06:54;;;;;;;19.10;9.97;;;16.30;99.90;;;;;;5076200;28;20463;-67
2021/07/14 01:09:28;;;;;;;15.90;9.80;;;16.30;99.90;;;;;;5071113;28;20284;-67
2021/07/14 01:12:01;;;;;;;15.53;9.83;;;16.30;99.90;;;;;;5073586;28;20365;-67
2021/07/14 01:14:38;;;;;;;16.63;9.97;;;16.40;99.90;;;;;;5072959;28;20317;-66
2021/07/14 01:17:10;;;;;;;15.20;10.30;;;16.30;99.90;;;;;;5078075;28;20180;-67
2021/07/14 01:20:02;;;;;;;14.57;9.67;;;16.30;99.90;;;;;;5077692;28;20298;-66
2021/07/14 01:22:45;;;;;;;15.97;10.17;;;16.40;99.90;;;;;;5075466;28;20199;-67
2021/07/14 01:25:30;;;;;;;20.13;11.30;;;16.40;99.90;;;;;;5075237;28;20206;-67
2021/07/14 01:28:02;;;;;;;18.80;10.70;;;16.30;99.90;;;;;;5074512;28;20193;-67
2021/07/14 01:30:31;;;;;;;16.80;10.80;;;16.30;99.90;;;;;;5077183;28;20181;-67
2021/07/14 01:33:03;;;;;;;15.93;10.20;;;16.30;99.90;;;;;;5072194;28;20227;-67
2021/07/14 01:35:35;;;;;;;17.03;10.70;;;16.40;99.90;;;;;;5073951;28;20200;-67
2021/07/14 01:38:05;;;;;;;17.50;10.40;;;16.40;99.90;;;;;;5075646;28;20544;-65
2021/07/14 01:40:35;;;;;;;16.50;10.30;;;16.30;99.90;;;;;;5076381;28;20169;-65
2021/07/14 01:43:05;;;;;;;22.80;11.27;;;16.30;99.90;;;;;;5071591;28;20181;-67
2021/07/14 01:45:36;;;;;;;14.77;10.77;;;16.30;99.90;;;;;;5071201;28;20449;-66
2021/07/14 01:48:09;;;;;;;16.00;10.57;;;16.20;99.90;;;;;;5079335;28;20404;-66
2021/07/14 01:50:38;;;;;;;18.77;10.97;;;16.20;99.90;;;;;;5078514;28;20256;-66
2021/07/14 01:53:09;;;;;;;15.17;10.90;;;16.20;99.90;;;;;;5075127;28;20324;-65
2021/07/14 01:55:40;;;;;;;19.77;11.10;;;16.20;99.90;;;;;;5072857;28;20196;-66
2021/07/14 01:58:11;;;;;;;17.50;10.40;;;16.20;99.90;;;;;;5075942;28;20180;-66
2021/07/14 02:00:40;;;;;;;21.00;11.20;;;16.10;99.90;;;;;;5076487;28;20421;-66
2021/07/14 02:03:18;;;;;;;20.90;11.23;;;16.10;99.90;;;;;;5075780;28;20185;-67
2021/07/14 02:05:47;;;;;;;22.03;11.50;;;16.10;99.90;;;;;;5068038;28;20207;-66
2021/07/14 02:08:15;;;;;;;18.60;10.90;;;16.10;99.90;;;;;;5075187;28;20200;-66
2021/07/14 02:10:45;;;;;;;19.93;11.03;;;16.10;99.90;;;;;;5077611;28;20192;-66
2021/07/14 02:13:17;;;;;;;18.77;11.27;;;16.10;99.90;;;;;;5078083;28;20203;-66
2021/07/14 02:15:52;;;;;;;18.83;10.57;;;16.10;99.90;;;;;;5067368;28;20185;-66
2021/07/14 02:18:26;;;;;;;14.43;10.17;;;16.10;99.90;;;;;;5075472;28;20183;-67
2021/07/14 02:20:57;;;;;;;19.43;10.57;;;16.10;99.90;;;;;;5074242;28;20179;-66
2021/07/14 02:23:26;;;;;;;15.10;9.80;;;16.00;99.90;;;;;;5077988;28;20192;-66
2021/07/14 02:25:54;;;;;;;17.17;10.60;;;16.00;99.90;;;;;;5071692;28;20197;-66
2021/07/14 02:28:24;;;;;;;20.23;9.93;;;16.00;99.90;;;;;;5075906;28;20192;-66
2021/07/14 02:30:52;;;;;;;20.43;10.60;;;16.00;99.90;;;;;;5077493;28;20184;-66
2021/07/14 02:33:21;;;;;;;19.83;10.70;;;16.10;99.90;;;;;;5070560;28;20226;-66
2021/07/14 02:35:51;;;;;;;17.13;10.37;;;16.10;99.90;;;;;;5053057;28;20184;-66
2021/07/14 02:38:24;;;;;;;16.80;9.87;;;16.10;99.90;;;;;;5074356;28;20184;-66
2021/07/14 02:40:57;;;;;;;21.10;9.73;;;16.10;99.90;;;;;;5075109;28;20185;-66
2021/07/14 02:43:28;;;;;;;17.87;10.17;;;16.10;99.90;;;;;;5072991;28;20420;-67
2021/07/14 02:45:59;;;;;;;19.70;9.90;;;16.10;99.90;;;;;;5077137;28;20194;-66
2021/07/14 02:48:29;;;;;;;21.00;10.20;;;16.10;99.90;;;;;;5070732;28;20173;-67
2021/07/14 02:50:59;;;;;;;14.07;9.60;;;16.10;99.90;;;;;;5078308;28;20185;-67
2021/07/14 02:53:33;;;;;;;16.17;9.57;;;16.10;99.90;;;;;;5076235;28;20219;-66
2021/07/14 02:56:04;;;;;;;16.53;9.53;;;16.10;99.90;;;;;;5074039;28;20184;-67
2021/07/14 02:58:35;;;;;;;13.73;9.10;;;16.10;99.90;;;;;;5073939;28;20436;-67
2021/07/14 03:01:04;;;;;;;16.83;9.90;;;16.20;99.90;;;;;;5077209;28;20219;-66
2021/07/14 03:03:33;;;;;;;15.30;9.20;;;16.20;99.90;;;;;;5053274;28;20463;-66
2021/07/14 03:06:04;;;;;;;13.00;9.37;;;16.20;99.90;;;;;;5078054;28;20185;-65
2021/07/14 03:08:36;;;;;;;13.83;9.77;;;16.20;99.90;;;;;;5077359;28;20188;-66
2021/07/14 03:11:05;;;;;;;17.10;9.60;;;16.20;99.90;;;;;;5076420;28;20185;-67
2021/07/14 03:13:39;;;;;;;14.47;10.40;;;16.20;99.90;;;;;;5077988;28;20269;-66
2021/07/14 03:16:08;;;;;;;17.80;9.07;;;16.20;99.90;;;;;;5077910;28;20199;-65
2021/07/14 03:18:38;;;;;;;13.90;9.27;;;16.30;99.90;;;;;;5078794;28;20188;-66
2021/07/14 03:21:06;;;;;;;16.57;9.20;;;16.30;99.90;;;;;;5079161;28;20203;-67
2021/07/14 03:23:38;;;;;;;18.13;9.47;;;16.30;99.90;;;;;;5080238;28;20200;-67
2021/07/14 03:26:08;;;;;;;15.60;10.40;;;16.30;99.90;;;;;;5074458;28;20456;-67
2021/07/14 03:28:40;;;;;;;17.20;10.10;;;16.30;99.90;;;;;;5078441;28;20184;-66
2021/07/14 03:31:09;;;;;;;19.10;11.73;;;16.30;99.90;;;;;;5080235;28;20173;-65
2021/07/14 03:33:38;;;;;;;19.20;12.10;;;16.30;99.90;;;;;;5077784;28;20251;-67
2021/07/14 03:36:08;;;;;;;25.50;13.30;;;16.30;99.90;;;;;;5076271;28;20457;-67
2021/07/14 03:38:37;;;;;;;19.37;13.43;;;16.30;99.90;;;;;;5076533;28;20444;-67
2021/07/14 03:41:06;;;;;;;31.33;14.23;;;16.20;99.90;;;;;;5079514;28;20234;-67
2021/07/14 03:43:36;;;;;;;24.47;13.30;;;16.20;99.90;;;;;;5081679;28;20265;-66
2021/07/14 03:46:17;;;;;;;25.07;13.80;;;16.20;99.90;;;;;;5051914;28;20431;-66
2021/07/14 03:48:46;;;;;;;22.53;12.97;;;16.20;99.90;;;;;;5077719;28;20421;-66
2021/07/14 03:51:17;;;;;;;25.03;13.67;;;16.20;99.90;;;;;;5075786;28;20184;-66
2021/07/14 03:53:46;;;;;;;26.23;13.23;;;16.20;99.90;;;;;;5080571;28;20213;-66
2021/07/14 03:56:15;;;;;;;24.90;13.50;;;16.30;99.90;;;;;;5077209;28;20191;-66
2021/07/14 03:58:46;;;;;;;27.30;14.07;;;16.20;99.90;;;;;;5075300;28;21311;-66
2021/07/14 04:01:17;;;;;;;27.60;14.27;;;16.20;99.90;;;;;;5079767;28;20309;-66
2021/07/14 04:03:46;;;;;;;28.77;14.33;;;16.20;99.90;;;;;;5078924;28;20180;-66
2021/07/14 04:06:17;;;;;;;27.33;14.67;;;16.30;99.90;;;;;;5077281;28;20183;-66
2021/07/14 04:08:48;;;;;;;23.50;14.50;;;16.30;99.90;;;;;;5076931;28;20425;-66
2021/07/14 04:11:17;;;;;;;29.73;15.67;;;16.30;99.90;;;;;;5080242;28;20185;-67
2021/07/14 04:13:45;;;;;;;25.57;15.03;;;16.30;99.90;;;;;;5079623;28;20271;-67
2021/07/14 04:16:15;;;;;;;28.63;15.47;;;16.20;99.90;;;;;;5073834;28;20456;-66
2021/07/14 04:18:43;;;;;;;24.57;13.83;;;16.20;99.90;;;;;;5074881;28;20498;-67
2021/07/14 04:21:12;;;;;;;29.30;15.63;;;16.20;99.90;;;;;;5079542;28;20198;-66
2021/07/14 04:23:40;;;;;;;31.20;15.53;;;16.20;99.90;;;;;;5077117;28;20184;-67
2021/07/14 04:26:09;;;;;;;25.40;15.73;;;16.20;99.90;;;;;;5079954;28;20423;-66
2021/07/14 04:28:37;;;;;;;30.30;15.40;;;16.20;99.90;;;;;;5075373;28;20208;-67
2021/07/14 04:31:05;;;;;;;31.73;16.60;;;16.20;99.90;;;;;;5073077;28;20176;-67
2021/07/14 04:33:35;;;;;;;25.70;15.20;;;16.30;99.90;;;;;;5075348;28;20250;-67
2021/07/14 04:36:03;;;;;;;26.03;15.23;;;16.30;99.90;;;;;;5078917;28;20188;-66
2021/07/14 04:38:32;;;;;;;28.70;16.10;;;16.30;99.90;;;;;;5075099;28;20230;-66
2021/07/14 04:41:00;;;;;;;30.70;15.37;;;16.30;99.90;;;;;;5075217;28;20377;-66
2021/07/14 04:43:29;;;;;;;25.07;14.73;;;16.30;99.90;;;;;;5076233;28;20337;-66
2021/07/14 04:45:58;;;;;;;30.87;15.77;;;16.30;99.90;;;;;;5079295;28;20234;-66
2021/07/14 04:48:26;;;;;;;31.50;16.10;;;16.30;99.90;;;;;;5079922;28;20386;-67
2021/07/14 04:50:56;;;;;;;25.13;16.17;;;16.20;99.90;;;;;;5076004;28;20201;-66
2021/07/14 04:53:25;;;;;;;30.27;16.17;;;16.30;99.90;;;;;;5075847;28;20180;-66
2021/07/14 04:55:53;;;;;;;27.47;14.67;;;16.30;99.90;;;;;;5077481;28;20192;-67
2021/07/14 04:58:21;;;;;;;27.33;15.93;;;16.30;99.90;;;;;;5072054;28;20173;-66
2021/07/14 05:00:50;;;;;;;27.90;15.90;;;16.30;99.90;;;;;;5077286;28;20228;-66
2021/07/14 05:03:19;;;;;;;32.30;15.97;;;16.30;99.90;;;;;;5075002;28;20200;-67
2021/07/14 05:05:47;;;;;;;33.53;16.07;;;16.30;99.90;;;;;;5070325;28;20479;-66
2021/07/14 05:08:18;;;;;;;32.60;17.50;;;16.30;99.90;;;;;;5075360;28;20184;-66
2021/07/14 05:10:48;;;;;;;29.13;17.77;;;16.30;99.90;;;;;;5073208;28;20258;-66
2021/07/14 05:13:17;;;;;;;32.40;17.73;;;16.30;99.90;;;;;;5076290;28;20197;-66
2021/07/14 05:15:47;;;;;;;29.57;16.43;;;16.40;99.90;;;;;;5076856;28;20355;-66
2021/07/14 05:18:15;;;;;;;32.33;17.90;;;16.40;99.90;;;;;;5070860;28;20193;-66
2021/07/14 05:20:44;;;;;;;33.63;18.73;;;16.40;99.90;;;;;;5074930;28;20188;-66
2021/07/14 05:23:12;;;;;;;38.83;19.33;;;16.40;99.90;;;;;;5074074;28;20208;-67
2021/07/14 05:25:47;;;;;;;41.30;18.97;;;16.40;99.90;;;;;;5076442;28;20352;-66
2021/07/14 05:28:16;;;;;;;33.50;19.03;;;16.40;99.90;;;;;;5077191;28;20222;-66
2021/07/14 05:30:45;;;;;;;34.83;19.70;;;16.40;99.90;;;;;;5069739;28;20204;-66
2021/07/14 05:33:15;;;;;;;30.27;19.83;;;16.40;99.90;;;;;;5072297;28;20211;-65
2021/07/14 05:35:43;;;;;;;36.13;20.10;;;16.40;99.90;;;;;;5075201;28;20205;-67
2021/07/14 05:38:18;;;;;;;34.70;20.37;;;16.40;99.90;;;;;;5072283;28;20207;-66
2021/07/14 05:40:49;;;;;;;34.33;19.77;;;16.40;99.90;;;;;;5075971;28;20206;-66
2021/07/14 05:43:18;;;;;;;35.30;19.60;;;16.40;99.90;;;;;;5073815;28;20426;-67
2021/07/14 05:45:46;;;;;;;34.07;19.27;;;16.40;99.90;;;;;;5077317;28;20176;-66
2021/07/14 05:48:15;;;;;;;32.60;18.73;;;16.40;99.90;;;;;;5072440;28;20175;-65
2021/07/14 05:50:45;;;;;;;32.97;19.37;;;16.40;99.90;;;;;;5074659;28;20203;-66
2021/07/14 05:53:13;;;;;;;37.83;19.27;;;16.40;99.90;;;;;;5072041;28;20176;-66
2021/07/14 05:55:42;;;;;;;40.30;21.17;;;16.40;99.90;;;;;;5077438;28;20213;-67
2021/07/14 05:58:12;;;;;;;34.80;20.20;;;16.40;99.90;;;;;;5078087;28;20413;-66
2021/07/14 06:00:40;;;;;;;30.80;19.43;;;16.40;99.90;;;;;;5077570;28;20179;-66
2021/07/14 06:03:09;;;;;;;30.63;19.27;;;16.40;99.90;;;;;;5076513;28;20225;-66
2021/07/14 06:05:38;;;;;;;30.47;19.47;;;16.30;99.90;;;;;;5074804;28;20417;-66
2021/07/14 06:08:07;;;;;;;29.40;17.97;;;16.30;99.90;;;;;;5074747;28;20192;-66
2021/07/14 06:10:36;;;;;;;29.60;18.13;;;16.30;99.90;;;;;;5076198;28;20377;-66
2021/07/14 06:13:05;;;;;;;29.63;18.27;;;16.30;99.90;;;;;;5074537;28;20189;-66
2021/07/14 06:15:34;;;;;;;32.90;19.37;;;16.30;99.90;;;;;;5071850;28;20461;-66
2021/07/14 06:18:03;;;;;;;31.80;17.50;;;16.30;99.90;;;;;;5071949;28;20199;-66
2021/07/14 06:20:32;;;;;;;29.27;17.40;;;16.30;99.90;;;;;;5070378;28;20191;-67
2021/07/14 06:23:00;;;;;;;35.03;17.43;;;16.30;99.90;;;;;;5071505;28;20353;-66
2021/07/14 06:25:29;;;;;;;27.13;15.67;;;16.30;99.90;;;;;;5073457;28;20359;-67
2021/07/14 06:28:00;;;;;;;25.23;16.30;;;16.30;99.90;;;;;;5076895;28;20177;-67
2021/07/14 06:30:28;;;;;;;24.93;16.70;;;16.30;99.90;;;;;;5070266;28;20184;-66
2021/07/14 06:32:59;;;;;;;21.10;15.43;;;16.30;99.90;;;;;;5076212;28;20237;-66
2021/07/14 06:35:27;;;;;;;27.87;15.87;;;16.30;99.90;;;;;;5078397;28;20453;-66
2021/07/14 06:37:56;;;;;;;29.83;17.03;;;16.30;99.90;;;;;;5078728;28;20202;-66
2021/07/14 06:40:24;;;;;;;25.53;16.37;;;16.30;99.90;;;;;;5071146;28;20243;-66
2021/07/14 06:42:53;;;;;;;27.47;16.97;;;16.30;99.90;;;;;;5078895;28;20386;-66
2021/07/14 06:45:23;;;;;;;26.57;16.00;;;16.30;99.90;;;;;;5077961;28;20177;-66
2021/07/14 06:47:57;;;;;;;24.63;16.97;;;16.30;99.90;;;;;;5083421;28;20180;-66
2021/07/14 06:50:26;;;;;;;28.87;16.63;;;16.30;99.90;;;;;;5081686;28;20190;-66
2021/07/14 06:52:54;;;;;;;28.57;17.47;;;16.30;99.90;;;;;;5083969;28;20192;-66
2021/07/14 06:55:23;;;;;;;26.20;16.40;;;16.30;99.90;;;;;;5081903;28;20222;-67
2021/07/14 06:57:51;;;;;;;29.80;17.93;;;16.30;99.90;;;;;;5077631;28;20193;-66
2021/07/14 07:00:20;;;;;;;26.33;17.23;;;16.30;99.90;;;;;;5072474;28;20250;-66
2021/07/14 07:02:49;;;;;;;29.50;16.43;;;16.40;99.90;;;;;;5073424;28;20186;-66
2021/07/14 07:05:19;;;;;;;25.37;15.67;;;16.30;99.90;;;;;;5072805;28;20181;-66
2021/07/14 07:07:48;;;;;;;21.03;14.83;;;16.30;99.90;;;;;;5074763;28;20550;-67
2021/07/14 07:10:16;;;;;;;27.23;15.67;;;16.30;99.90;;;;;;5075803;28;20326;-65
2021/07/14 07:12:44;;;;;;;21.80;15.17;;;16.30;99.90;;;;;;5071297;28;20235;-66
2021/07/14 07:15:18;;;;;;;24.07;15.80;;;16.30;99.90;;;;;;5078813;28;20224;-66
2021/07/14 07:17:47;;;;;;;22.73;17.20;;;16.30;99.90;;;;;;5073899;28;20326;-66
2021/07/14 07:20:16;;;;;;;28.23;16.43;;;16.30;99.90;;;;;;5077589;28;20185;-66
2021/07/14 07:22:46;;;;;;;24.33;16.53;;;16.30;99.90;;;;;;5076799;28;20203;-66
2021/07/14 07:25:16;;;;;;;23.03;16.63;;;16.30;99.90;;;;;;5076446;28;20234;-67
2021/07/14 07:27:44;;;;;;;24.10;17.07;;;16.30;99.90;;;;;;5079977;28;20173;-66
2021/07/14 07:30:14;;;;;;;28.10;19.10;;;16.30;99.90;;;;;;5074909;28;20408;-66
2021/07/14 07:32:43;;;;;;;25.83;18.93;;;16.30;99.90;;;;;;5074458;28;20277;-66
2021/07/14 07:35:12;;;;;;;27.37;18.33;;;16.40;99.90;;;;;;5074499;28;20464;-66
2021/07/14 07:37:40;;;;;;;29.57;18.60;;;16.40;99.90;;;;;;5074342;28;20384;-66
2021/07/14 07:40:12;;;;;;;28.53;19.63;;;16.40;99.90;;;;;;5075016;28;20238;-67
2021/07/14 07:42:40;;;;;;;29.90;18.27;;;16.30;99.90;;;;;;5078963;28;20429;-66
2021/07/14 07:45:09;;;;;;;29.57;18.60;;;16.30;99.90;;;;;;5077259;28;20188;-66
2021/07/14 07:47:38;;;;;;;33.80;19.57;;;16.30;99.90;;;;;;5077252;28;20488;-66
2021/07/14 07:50:08;;;;;;;31.50;20.10;;;16.30;99.90;;;;;;5074369;28;20191;-66
2021/07/14 07:52:37;;;;;;;29.77;21.47;;;16.30;99.90;;;;;;5077606;28;20360;-66
2021/07/14 07:55:07;;;;;;;39.43;22.83;;;16.40;99.90;;;;;;5080452;28;20184;-65
2021/07/14 07:57:36;;;;;;;36.80;24.43;;;16.30;99.90;;;;;;5080055;28;20315;-65
2021/07/14 08:00:07;;;;;;;38.27;23.73;;;16.30;99.90;;;;;;5078601;28;20193;-65
2021/07/14 08:02:37;;;;;;;33.17;23.00;;;16.30;99.90;;;;;;5081687;28;20207;-66
2021/07/14 08:05:06;;;;;;;35.73;22.67;;;16.30;99.90;;;;;;5079380;28;20176;-66
2021/07/14 08:07:35;;;;;;;32.40;21.67;;;16.30;99.90;;;;;;5078510;28;20185;-65
2021/07/14 08:10:05;;;;;;;35.63;21.97;;;16.30;99.90;;;;;;5074509;28;20201;-65
2021/07/14 08:12:33;;;;;;;33.70;21.47;;;16.40;99.90;;;;;;5075588;28;20230;-65
2021/07/14 08:15:04;;;;;;;34.20;20.77;;;16.40;99.90;;;;;;5077066;28;20239;-66
2021/07/14 08:17:33;;;;;;;30.67;19.03;;;16.40;99.90;;;;;;5071469;28;20177;-65
2021/07/14 08:20:02;;;;;;;29.77;18.60;;;16.40;99.90;;;;;;5074203;28;20360;-65
2021/07/14 08:22:30;;;;;;;28.67;17.63;;;16.40;99.90;;;;;;5073099;28;20250;-66
2021/07/14 08:25:01;;;;;;;26.40;18.33;;;16.30;99.90;;;;;;5074202;28;20185;-66
2021/07/14 08:27:29;;;;;;;30.50;19.23;;;16.40;99.90;;;;;;5078673;28;20200;-65
2021/07/14 08:29:59;;;;;;;29.93;19.03;;;16.40;99.90;;;;;;5077488;28;20181;-65
2021/07/14 08:32:30;;;;;;;31.80;18.33;;;16.40;99.90;;;;;;5076172;28;20188;-65
2021/07/14 08:34:59;;;;;;;32.20;18.83;;;16.50;99.90;;;;;;5076621;28;20192;-65
2021/07/14 08:37:27;;;;;;;31.77;20.13;;;16.50;99.90;;;;;;5076726;28;20477;-66
2021/07/14 08:39:57;;;;;;;33.50;19.70;;;16.50;99.90;;;;;;5075147;28;20191;-65
2021/07/14 08:42:29;;;;;;;34.57;20.20;;;16.50;99.90;;;;;;5076817;28;20187;-66
2021/07/14 08:44:57;;;;;;;28.47;18.63;;;16.60;99.90;;;;;;5073464;28;20185;-65
2021/07/14 08:47:27;;;;;;;28.83;18.63;;;16.60;99.90;;;;;;5074188;28;20201;-66
2021/07/14 08:49:57;;;;;;;29.73;18.37;;;16.60;99.90;;;;;;5070066;28;20309;-65
2021/07/14 08:52:25;;;;;;;27.97;20.37;;;16.60;99.90;;;;;;5077109;28;20192;-66
2021/07/14 08:54:54;;;;;;;30.73;19.00;;;16.60;99.90;;;;;;5072437;28;20440;-65
2021/07/14 08:57:23;;;;;;;27.50;19.00;;;16.60;99.90;;;;;;5081845;28;20205;-65
2021/07/14 08:59:51;;;;;;;26.77;17.13;;;16.60;99.90;;;;;;5076139;28;20195;-65
2021/07/14 09:02:20;;;;;;;21.77;16.90;;;16.60;99.90;;;;;;5080522;28;20247;-65
2021/07/14 09:04:48;;;;;;;21.73;15.63;;;16.60;99.90;;;;;;5079403;28;20477;-65
2021/07/14 09:07:18;;;;;;;21.37;14.57;;;16.60;99.90;;;;;;5073738;28;20212;-65
2021/07/14 09:09:46;;;;;;;20.53;12.70;;;16.50;99.90;;;;;;5076853;28;20187;-65
2021/07/14 09:12:16;;;;;;;18.87;13.30;;;16.50;99.90;;;;;;5072423;28;20329;-65
2021/07/14 09:14:45;;;;;;;21.83;12.90;;;16.50;99.90;;;;;;5074819;28;20332;-65
2021/07/14 09:17:25;;;;;;;20.10;12.97;;;16.40;99.90;;;;;;5071418;28;20200;-66
2021/07/14 09:20:01;;;;;;;22.50;14.13;;;16.50;99.90;;;;;;5070267;28;20193;-65
2021/07/14 09:22:32;;;;;;;21.63;13.87;;;16.40;99.90;;;;;;5074858;28;20481;-66
2021/07/14 09:25:09;;;;;;;24.03;17.20;;;16.50;99.90;;;;;;5063644;28;20188;-65
2021/07/14 09:27:37;;;;;;;29.03;16.40;;;16.40;99.90;;;;;;5075869;28;20180;-65
2021/07/14 09:30:11;;;;;;;27.30;16.37;;;16.40;99.90;;;;;;5074253;28;20348;-65
2021/07/14 09:32:48;;;;;;;27.00;18.00;;;16.40;99.90;;;;;;5068226;28;20219;-65
2021/07/14 09:35:36;;;;;;;30.27;17.27;;;16.40;99.90;;;;;;5072688;28;20229;-65
2021/07/14 09:38:09;;;;;;;25.57;17.90;;;16.50;99.90;;;;;;5070178;28;20258;-65
2021/07/14 09:40:39;;;;;;;32.03;19.30;;;16.40;99.90;;;;;;5071789;28;20230;-65
2021/07/14 09:43:10;;;;;;;25.27;18.10;;;16.40;99.90;;;;;;5073326;28;20205;-66
2021/07/14 09:45:50;;;;;;;30.00;18.43;;;16.50;99.90;;;;;;5069653;28;20198;-66
2021/07/14 09:48:22;;;;;;;33.03;19.67;;;16.50;99.90;;;;;;5076196;28;20180;-66
2021/07/14 09:50:54;;;;;;;30.53;20.23;;;16.40;99.90;;;;;;5073860;28;20198;-65
2021/07/14 09:53:25;;;;;;;37.93;20.57;;;16.40;99.90;;;;;;5068066;28;20192;-66
2021/07/14 09:55:56;;;;;;;33.73;19.97;;;16.40;99.90;;;;;;5074858;28;20320;-65
2021/07/14 09:58:27;;;;;;;34.90;20.30;;;16.40;99.90;;;;;;5071246;28;20456;-65
2021/07/14 10:00:58;;;;;;;34.60;20.90;;;16.40;99.90;;;;;;5074968;28;20200;-65
2021/07/14 10:03:29;;;;;;;37.00;21.87;;;16.40;99.90;;;;;;5074735;28;20229;-65
2021/07/14 10:06:09;;;;;;;39.47;21.70;;;16.40;99.90;;;;;;5071041;28;20240;-65
2021/07/14 10:08:40;;;;;;;37.17;22.40;;;16.40;99.90;;;;;;5075809;28;20179;-66
2021/07/14 10:11:14;;;;;;;32.27;22.53;;;16.40;99.90;;;;;;5070563;28;20459;-65
2021/07/14 10:13:54;;;;;;;36.57;23.43;;;16.40;99.90;;;;;;5071730;28;20185;-65
2021/07/14 10:16:24;;;;;;;34.43;22.00;;;16.50;99.90;;;;;;5065704;28;20202;-66
2021/07/14 10:19:01;;;;;;;32.07;21.03;;;16.50;99.90;;;;;;5076269;28;20180;-66
2021/07/14 10:21:31;;;;;;;36.73;21.43;;;16.40;99.90;;;;;;5070929;28;20254;-66
2021/07/14 10:24:01;;;;;;;28.77;19.57;;;16.40;99.90;;;;;;5073906;28;20338;-66
2021/07/14 10:26:31;;;;;;;34.27;19.47;;;16.40;99.90;;;;;;5069783;28;21367;-66
2021/07/14 10:29:00;;;;;;;30.13;18.73;;;16.40;99.90;;;;;;5071293;28;20468;-66
2021/07/14 10:31:29;;;;;;;32.53;20.43;;;16.50;99.90;;;;;;5073913;28;20330;-66
2021/07/14 10:33:59;;;;;;;28.53;18.57;;;16.50;99.90;;;;;;5071049;28;20214;-66
2021/07/14 10:36:29;;;;;;;31.70;19.03;;;16.50;99.90;;;;;;5070859;28;20188;-66
2021/07/14 10:39:04;;;;;;;27.33;18.47;;;16.40;99.90;;;;;;5073995;28;20424;-67
2021/07/14 10:41:33;;;;;;;29.47;18.13;;;16.50;99.90;;;;;;5075467;28;20175;-66
2021/07/14 10:44:04;;;;;;;23.40;17.40;;;16.50;99.90;;;;;;5073213;28;20181;-66
2021/07/14 10:46:35;;;;;;;26.63;17.47;;;16.50;99.90;;;;;;5074050;28;20210;-66
2021/07/14 10:49:06;;;;;;;28.47;16.97;;;16.50;99.90;;;;;;5077521;28;20453;-66
2021/07/14 10:51:39;;;;;;;34.17;17.23;;;16.50;99.90;;;;;;5070096;28;20356;-67
2021/07/14 10:54:11;;;;;;;25.17;16.23;;;16.50;99.90;;;;;;5074963;28;20203;-67
2021/07/14 10:56:43;;;;;;;27.53;16.37;;;16.50;99.90;;;;;;5066776;28;20295;-66
2021/07/14 10:59:14;;;;;;;23.13;16.47;;;16.50;99.90;;;;;;5070218;28;20374;-67
2021/07/14 11:01:44;;;;;;;24.10;15.53;;;16.60;99.90;;;;;;5066710;28;20197;-66
2021/07/14 11:04:34;;;;;;;23.80;15.03;;;16.60;99.90;;;;;;5071029;28;20228;-66
2021/07/14 11:07:05;;;;;;;24.80;15.17;;;16.60;99.90;;;;;;5069760;28;20246;-67
2021/07/14 11:09:36;;;;;;;18.93;13.77;;;16.70;99.90;;;;;;5071233;28;20215;-66
2021/07/14 11:12:06;;;;;;;20.43;12.97;;;16.70;99.90;;;;;;5072653;28;20269;-66
2021/07/14 11:14:36;;;;;;;18.53;13.17;;;16.70;99.90;;;;;;5069132;28;20179;-66
2021/07/14 11:17:05;;;;;;;23.17;13.53;;;16.70;99.90;;;;;;5071878;28;20221;-66
2021/07/14 11:19:45;;;;;;;22.20;12.70;;;16.80;99.90;;;;;;5073591;28;20471;-66
2021/07/14 11:22:15;;;;;;;18.57;12.47;;;16.80;99.90;;;;;;5072242;28;20371;-67
2021/07/14 11:25:03;;;;;;;16.70;13.03;;;16.80;99.90;;;;;;5069191;28;20208;-66
2021/07/14 11:27:47;;;;;;;17.77;12.80;;;16.90;99.90;;;;;;5054246;28;20246;-66
2021/07/14 11:30:35;;;;;;;18.43;13.13;;;17.00;99.90;;;;;;5072278;28;20440;-66
2021/07/14 11:33:04;;;;;;;16.57;12.53;;;17.00;99.90;;;;;;5075775;28;20306;-66
2021/07/14 11:35:59;;;;;;;17.73;12.97;;;17.10;99.90;;;;;;5080395;28;20185;-67
2021/07/14 11:38:30;;;;;;;14.10;11.10;;;17.10;99.90;;;;;;5067418;28;20223;-67
2021/07/14 11:41:02;;;;;;;13.53;11.00;;;17.10;99.90;;;;;;5078899;28;20177;-67
2021/07/14 11:43:41;;;;;;;14.37;9.97;;;17.10;99.90;;;;;;5060747;28;20189;-66
2021/07/14 11:46:12;;;;;;;15.67;9.70;;;17.20;99.90;;;;;;5080042;28;20417;-66
2021/07/14 11:48:43;;;;;;;14.00;9.60;;;17.10;99.90;;;;;;5076926;28;20218;-67
2021/07/14 11:51:23;;;;;;;12.03;9.07;;;17.10;99.90;;;;;;5082053;28;20190;-66
2021/07/14 11:53:52;;;;;;;16.23;10.03;;;17.10;99.90;;;;;;5081758;28;20201;-67
2021/07/14 11:56:34;;;;;;;13.77;9.07;;;17.10;99.90;;;;;;5078793;28;20184;-66
2021/07/14 11:59:11;;;;;;;15.03;10.37;;;17.20;99.90;;;;;;5078361;28;20226;-66
2021/07/14 12:02:16;;;;;;;13.03;10.40;;;17.20;99.90;;;;;;5078334;28;20177;-67
2021/07/14 12:05:08;;;;;;;12.73;9.50;;;17.20;99.90;;;;;;5076159;28;20246;-65
2021/07/14 12:07:41;;;;;;;14.37;8.77;;;17.40;99.90;;;;;;5078953;28;20199;-66
2021/07/14 12:10:19;;;;;;;11.73;8.20;;;17.40;99.90;;;;;;5081325;28;20295;-67
2021/07/14 12:12:49;;;;;;;8.80;6.37;;;17.50;99.90;;;;;;5066567;28;20182;-67
2021/07/14 12:15:17;;;;;;;7.37;6.20;;;17.60;99.90;;;;;;5080485;28;20225;-67
2021/07/14 12:17:46;;;;;;;8.23;5.33;;;17.70;99.90;;;;;;5081655;28;20212;-67
2021/07/14 12:20:16;;;;;;;5.53;5.07;;;17.70;99.90;;;;;;5077444;28;20203;-66
2021/07/14 12:22:45;;;;;;;6.10;5.50;;;17.80;99.90;;;;;;5081180;28;20179;-67
2021/07/14 12:25:16;;;;;;;5.40;4.90;;;17.90;99.90;;;;;;5082040;28;20180;-67
2021/07/14 12:27:46;;;;;;;5.93;5.37;;;18.00;99.90;;;;;;5080887;28;20191;-67
2021/07/14 12:30:20;;;;;;;6.70;5.00;;;18.00;99.90;;;;;;5075203;28;20207;-66
2021/07/14 12:32:52;;;;;;;5.60;5.10;;;17.80;99.90;;;;;;5078314;28;21537;-66
2021/07/14 12:35:26;;;;;;;6.60;5.40;;;17.80;99.90;;;;;;5076944;28;20234;-67
2021/07/14 12:37:57;;;;;;;6.00;5.47;;;17.80;99.90;;;;;;5076695;28;20471;-66
2021/07/14 12:40:26;;;;;;;7.77;6.43;;;17.90;99.90;;;;;;5081255;28;20236;-66
2021/07/14 12:43:06;;;;;;;10.37;6.50;;;17.90;99.90;;;;;;5080576;28;20737;-67
2021/07/14 12:45:39;;;;;;;7.53;6.83;;;17.90;99.90;;;;;;5077489;28;20341;-66
2021/07/14 12:48:11;;;;;;;7.60;6.70;;;17.80;99.90;;;;;;5074647;28;20187;-66
2021/07/14 12:50:44;;;;;;;7.77;7.07;;;17.90;99.90;;;;;;5078983;28;20184;-66
2021/07/14 12:53:12;;;;;;;9.17;7.63;;;17.90;99.90;;;;;;5079639;28;20211;-67
2021/07/14 12:55:42;;;;;;;9.43;7.17;;;18.00;99.90;;;;;;5081561;28;20199;-67